Time;durP1;ratioP1;P1;durP2;ratioP2;P2;SDS_P1;SDS_P2;PMS_P1;PMS_P2;Temp;Humidity;BMP_temperature;BMP_pressure;BME280_temperature;BME280_humidity;BME280_pressure;Samples;Min_cycle;Max_cycle;Signal;HPM_P1;HPM_P2
2023/03/29 00:01:24;;;;;;;7.40;2.10;;;;;;;-3.53;71.44;100278.02;106453;1286;58899;-66
2023/03/29 00:04:26;;;;;;;6.90;2.10;;;;;;;-3.54;71.64;100274.21;106462;1286;58949;-66
2023/03/29 00:07:13;;;;;;;11.60;2.90;;;;;;;-3.55;71.71;100271.98;106359;1286;72936;-66
2023/03/29 00:10:03;;;;;;;11.50;2.60;;;;;;;-3.55;71.95;100268.52;105619;1286;1002549;-65
2023/03/29 00:12:51;;;;;;;9.70;2.70;;;;;;;-3.56;72.00;100271.12;106365;1286;70830;-66
2023/03/29 00:15:37;;;;;;;12.10;3.20;;;;;;;-3.55;72.34;100272.31;106449;1286;57428;-63
2023/03/29 00:18:24;;;;;;;7.30;2.20;;;;;;;-3.53;72.35;100271.92;106365;1291;60689;-67
2023/03/29 00:21:11;;;;;;;9.60;2.70;;;;;;;-3.50;72.72;100276.05;106439;1287;74165;-67
2023/03/29 00:23:59;;;;;;;8.50;2.80;;;;;;;-3.49;72.56;100277.94;106297;1286;66860;-67
2023/03/29 00:26:45;;;;;;;9.70;2.50;;;;;;;-3.50;72.93;100278.83;106428;1286;72707;-66
2023/03/29 00:29:32;;;;;;;7.80;2.40;;;;;;;-3.50;73.29;100281.77;106420;1286;57454;-68
2023/03/29 00:32:19;;;;;;;9.40;2.30;;;;;;;-3.51;73.50;100278.66;105506;1291;1002340;-65
2023/03/29 00:35:07;;;;;;;9.80;2.60;;;;;;;-3.52;73.60;100277.48;105598;1287;1002344;-67
2023/03/29 00:37:56;;;;;;;9.00;2.50;;;;;;;-3.53;74.07;100276.80;106441;1286;66564;-68
2023/03/29 00:40:46;;;;;;;9.20;2.70;;;;;;;-3.55;74.20;100279.61;105666;1286;1002099;-65
2023/03/29 00:43:58;;;;;;;8.40;2.60;;;;;;;-3.58;74.71;100275.84;105544;1288;1002506;-64
2023/03/29 00:46:45;;;;;;;11.00;2.80;;;;;;;-3.62;74.90;100276.41;106518;1286;61354;-64
2023/03/29 00:49:34;;;;;;;13.50;2.30;;;;;;;-3.64;76.08;100278.17;106499;1286;71662;-64
2023/03/29 00:52:21;;;;;;;12.40;3.00;;;;;;;-3.65;76.35;100277.85;106433;1286;66815;-63
2023/03/29 00:55:16;;;;;;;7.80;2.10;;;;;;;-3.66;76.37;100274.94;106373;1286;71505;-62
2023/03/29 00:58:08;;;;;;;8.10;2.10;;;;;;;-3.68;76.50;100275.81;104894;1286;1002489;-63
2023/03/29 01:01:07;;;;;;;10.40;3.00;;;;;;;-3.69;76.96;100273.58;106464;1288;61193;-68
2023/03/29 01:04:17;;;;;;;13.20;3.00;;;;;;;-3.68;77.35;100270.27;105686;1286;1002716;-71
2023/03/29 01:07:38;;;;;;;10.60;3.30;;;;;;;-3.66;77.65;100267.65;106491;1286;67897;-67
2023/03/29 01:10:48;;;;;;;9.10;3.20;;;;;;;-3.63;78.57;100267.07;106456;1286;72760;-67
2023/03/29 01:13:43;;;;;;;7.70;2.60;;;;;;;-3.61;78.92;100262.34;105699;1287;1002287;-64
2023/03/29 01:16:32;;;;;;;11.90;3.40;;;;;;;-3.57;78.78;100264.38;105711;1286;1002892;-63
2023/03/29 01:19:25;;;;;;;8.80;2.70;;;;;;;-3.55;78.79;100260.87;106515;1286;73999;-62
2023/03/29 01:22:41;;;;;;;10.20;2.50;;;;;;;-3.56;78.89;100257.58;106518;1286;69034;-67
2023/03/29 01:26:01;;;;;;;9.30;2.50;;;;;;;-3.57;79.28;100255.02;105702;1286;1002260;-64
2023/03/29 01:29:27;;;;;;;10.80;2.60;;;;;;;-3.58;79.59;100251.23;106544;1286;57357;-64
2023/03/29 01:32:34;;;;;;;8.00;2.30;;;;;;;-3.61;79.85;100248.11;105845;1294;60256;-66
2023/03/29 01:35:35;;;;;;;10.20;2.40;;;;;;;-3.63;79.89;100246.95;105909;1294;74025;-65
2023/03/29 01:38:30;;;;;;;9.70;2.20;;;;;;;-3.67;80.39;100247.55;105972;1293;67757;-66
2023/03/29 01:41:17;;;;;;;8.80;2.40;;;;;;;-3.72;80.58;100241.20;105816;1294;71479;-65
2023/03/29 01:44:54;;;;;;;10.40;2.60;;;;;;;-3.72;81.46;100244.84;105895;1293;57865;-67
2023/03/29 01:47:54;;;;;;;11.00;2.50;;;;;;;-3.73;81.68;100247.11;105507;1299;58968;-67
2023/03/29 01:50:55;;;;;;;10.00;3.30;;;;;;;-3.73;81.63;100250.74;105456;1299;74878;-65
2023/03/29 01:53:59;;;;;;;10.70;3.40;;;;;;;-3.71;81.82;100249.16;104741;1299;1002303;-66
2023/03/29 01:56:49;;;;;;;6.40;1.90;;;;;;;-3.68;82.17;100250.84;105517;1299;72959;-68
2023/03/29 01:59:41;;;;;;;7.50;2.20;;;;;;;-3.64;83.20;100249.21;105491;1299;57358;-66
2023/03/29 02:02:30;;;;;;;11.20;2.60;;;;;;;-3.61;82.63;100248.83;105532;1299;57873;-66
2023/03/29 02:05:18;;;;;;;8.00;2.00;;;;;;;-3.61;82.27;100245.69;104658;1299;1002612;-65
2023/03/29 02:08:08;;;;;;;7.60;2.30;;;;;;;-3.61;82.19;100246.05;105531;1294;67840;-66
2023/03/29 02:10:55;;;;;;;7.30;2.80;;;;;;;-3.63;81.93;100245.04;105874;1295;72525;-63
2023/03/29 02:13:42;;;;;;;11.50;2.40;;;;;;;-3.64;81.85;100249.21;105864;1294;57510;-64
2023/03/29 02:16:35;;;;;;;6.80;2.60;;;;;;;-3.67;82.08;100251.18;105869;1294;60440;-64
2023/03/29 02:19:24;;;;;;;8.50;1.90;;;;;;;-3.70;82.11;100251.77;105801;1294;73208;-63
2023/03/29 02:22:14;;;;;;;8.40;2.10;;;;;;;-3.73;82.29;100249.73;105843;1294;66769;-64
2023/03/29 02:25:05;;;;;;;10.80;2.50;;;;;;;-3.81;82.63;100242.71;106378;1286;71618;-65
2023/03/29 02:27:52;;;;;;;8.70;2.80;;;;;;;-3.78;82.41;100250.13;106443;1286;58102;-66
2023/03/29 02:30:54;;;;;;;9.20;2.60;;;;;;;-3.77;82.65;100251.17;106386;1286;57936;-64
2023/03/29 02:34:06;;;;;;;7.60;2.20;;;;;;;-3.73;82.74;100251.45;106470;1286;72647;-65
2023/03/29 02:37:09;;;;;;;7.70;2.20;;;;;;;-3.72;82.97;100248.14;106389;1286;67815;-66
2023/03/29 02:39:58;;;;;;;8.00;2.50;;;;;;;-3.73;83.31;100250.57;106268;1286;71535;-69
2023/03/29 02:42:45;;;;;;;9.60;2.80;;;;;;;-3.73;83.31;100246.77;106402;1286;58085;-66
2023/03/29 02:45:35;;;;;;;10.00;2.80;;;;;;;-3.74;83.35;100248.69;106442;1286;58818;-66
2023/03/29 02:48:26;;;;;;;14.30;3.60;;;;;;;-3.76;83.32;100244.20;106400;1286;73056;-67
2023/03/29 02:51:25;;;;;;;20.30;6.00;;;;;;;-3.78;83.57;100242.51;106375;1286;67697;-66
2023/03/29 02:54:19;;;;;;;14.30;4.90;;;;;;;-3.79;83.66;100248.59;106366;1286;72743;-66
2023/03/29 02:57:06;;;;;;;13.10;3.50;;;;;;;-3.81;83.68;100246.37;106403;1286;57788;-64
2023/03/29 02:59:56;;;;;;;10.10;3.00;;;;;;;-3.84;83.91;100243.48;106485;1286;58841;-66
2023/03/29 03:02:43;;;;;;;10.10;2.50;;;;;;;-3.85;83.96;100242.44;106588;1286;71483;-65
2023/03/29 03:05:30;;;;;;;7.20;2.50;;;;;;;-3.87;83.99;100241.95;105668;1286;1002424;-65
2023/03/29 03:08:17;;;;;;;9.70;2.60;;;;;;;-3.86;84.07;100245.23;106454;1287;70142;-64
2023/03/29 03:11:04;;;;;;;11.00;2.40;;;;;;;-3.85;84.11;100243.84;106468;1286;58957;-64
2023/03/29 03:13:51;;;;;;;6.80;2.60;;;;;;;-3.82;84.01;100246.22;106387;1286;57890;-63
2023/03/29 03:16:37;;;;;;;9.20;2.40;;;;;;;-3.81;83.99;100245.15;106353;1286;73430;-64
2023/03/29 03:19:24;;;;;;;8.60;2.70;;;;;;;-3.80;83.91;100246.01;106346;1289;67857;-66
2023/03/29 03:22:11;;;;;;;8.00;2.50;;;;;;;-3.80;83.82;100243.77;106413;1287;72777;-65
2023/03/29 03:24:58;;;;;;;9.40;2.00;;;;;;;-3.81;83.63;100244.13;106406;1286;58009;-67
2023/03/29 03:27:48;;;;;;;8.30;2.30;;;;;;;-3.83;83.62;100246.91;106247;1286;58768;-68
2023/03/29 03:30:35;;;;;;;7.40;2.30;;;;;;;-3.87;83.46;100246.63;106102;1290;73167;-70
2023/03/29 03:33:36;;;;;;;7.70;2.20;;;;;;;-3.91;83.60;100240.64;105360;1291;1002175;-67
2023/03/29 03:36:46;;;;;;;7.30;2.20;;;;;;;-3.95;83.95;100236.02;106061;1291;71444;-65
2023/03/29 03:39:32;;;;;;;10.30;3.40;;;;;;;-3.98;83.82;100241.44;106204;1291;59597;-66
2023/03/29 03:42:20;;;;;;;36.10;13.20;;;;;;;-4.00;83.76;100239.56;106103;1291;61191;-66
2023/03/29 03:45:09;;;;;;;24.40;8.30;;;;;;;-4.02;83.72;100238.54;106052;1291;71942;-68
2023/03/29 03:48:14;;;;;;;23.30;10.80;;;;;;;-4.00;83.70;100231.06;106238;1291;66473;-67
2023/03/29 03:51:09;;;;;;;13.50;6.00;;;;;;;-4.01;83.98;100227.61;106013;1291;72718;-68
2023/03/29 03:53:55;;;;;;;11.00;4.10;;;;;;;-3.98;83.69;100236.41;106077;1291;57452;-67
2023/03/29 03:57:06;;;;;;;12.80;4.20;;;;;;;-3.99;83.73;100241.63;106125;1291;60273;-65
2023/03/29 04:00:00;;;;;;;9.00;3.60;;;;;;;-4.00;83.77;100241.80;106018;1290;73027;-67
2023/03/29 04:02:58;;;;;;;8.90;3.00;;;;;;;-4.04;83.64;100246.21;106309;1286;65419;-64
2023/03/29 04:05:46;;;;;;;10.40;3.30;;;;;;;-4.08;83.62;100250.07;106328;1286;70802;-67
2023/03/29 04:08:32;;;;;;;10.00;3.80;;;;;;;-4.12;83.53;100248.21;106351;1289;57412;-67
2023/03/29 04:11:39;;;;;;;8.50;2.30;;;;;;;-4.17;83.45;100250.19;106330;1288;60508;-66
2023/03/29 04:14:26;;;;;;;11.70;2.90;;;;;;;-4.23;83.60;100248.55;106335;1288;70895;-67
2023/03/29 04:17:38;;;;;;;9.20;3.20;;;;;;;-4.27;83.69;100251.73;106382;1288;66814;-68
2023/03/29 04:20:57;;;;;;;11.80;2.90;;;;;;;-4.30;84.14;100244.83;106326;1286;72652;-67
2023/03/29 04:23:45;;;;;;;8.40;3.00;;;;;;;-4.31;84.01;100247.61;106442;1286;57700;-65
2023/03/29 04:26:33;;;;;;;7.80;2.70;;;;;;;-4.31;84.15;100244.67;106594;1286;59339;-69
2023/03/29 04:29:29;;;;;;;10.70;3.10;;;;;;;-4.31;84.04;100241.20;106430;1286;72873;-66
2023/03/29 04:32:25;;;;;;;9.70;2.70;;;;;;;-4.29;84.03;100239.11;106422;1286;67968;-67
2023/03/29 04:35:18;;;;;;;11.00;3.20;;;;;;;-4.30;84.16;100243.44;106388;1286;71724;-67
2023/03/29 04:38:08;;;;;;;8.80;3.20;;;;;;;-4.28;84.30;100241.52;106369;1286;58080;-66
2023/03/29 04:40:55;;;;;;;10.40;2.50;;;;;;;-4.28;84.11;100239.61;106474;1286;57885;-67
2023/03/29 04:43:54;;;;;;;9.50;2.70;;;;;;;-4.27;84.20;100242.02;106417;1286;73978;-67
2023/03/29 04:46:45;;;;;;;12.10;2.80;;;;;;;-4.26;83.99;100243.55;106496;1286;65836;-65
2023/03/29 04:49:43;;;;;;;5.70;1.90;;;;;;;-4.26;83.95;100242.70;105670;1286;1002951;-64
2023/03/29 04:52:36;;;;;;;7.50;2.30;;;;;;;-4.25;83.94;100240.61;106336;1289;59319;-67
2023/03/29 04:55:23;;;;;;;8.40;2.90;;;;;;;-4.23;84.12;100242.83;106473;1286;60883;-69
2023/03/29 04:58:44;;;;;;;10.60;2.70;;;;;;;-4.20;83.86;100241.05;106415;1288;72855;-69
2023/03/29 05:01:31;;;;;;;9.60;3.20;;;;;;;-4.15;83.84;100236.14;106458;1286;67812;-71
2023/03/29 05:04:18;;;;;;;8.20;3.20;;;;;;;-4.10;83.75;100237.45;106344;1286;72697;-67
2023/03/29 05:07:18;;;;;;;10.10;3.10;;;;;;;-4.02;83.62;100234.39;106398;1286;57356;-68
2023/03/29 05:10:08;;;;;;;7.70;2.70;;;;;;;-3.96;83.55;100230.47;106433;1286;58935;-64
2023/03/29 05:12:55;;;;;;;9.20;3.30;;;;;;;-3.89;83.48;100228.98;106329;1288;72882;-69
2023/03/29 05:15:42;;;;;;;11.30;3.30;;;;;;;-3.83;83.26;100231.67;106395;1287;68936;-66
2023/03/29 05:18:36;;;;;;;8.60;2.80;;;;;;;-3.79;83.18;100233.33;106346;1287;72882;-70
2023/03/29 05:21:24;;;;;;;10.60;3.80;;;;;;;-3.74;83.01;100229.96;106307;1287;59403;-71
2023/03/29 05:24:12;;;;;;;10.70;4.00;;;;;;;-3.72;83.23;100226.28;106357;1288;59580;-73
2023/03/29 05:27:11;;;;;;;12.60;4.80;;;;;;;-3.70;83.43;100227.63;106366;1287;72037;-72
2023/03/29 05:30:00;;;;;;;18.90;6.80;;;;;;;-3.67;83.56;100229.14;106283;1288;66919;-74
2023/03/29 05:33:04;;;;;;;15.20;6.40;;;;;;;-3.58;83.45;100228.65;106354;1287;72769;-72
2023/03/29 05:36:12;;;;;;;16.00;6.30;;;;;;;-3.49;83.47;100226.59;106305;1287;57707;-75
2023/03/29 05:39:05;;;;;;;13.60;4.80;;;;;;;-3.37;83.19;100226.90;106352;1287;60325;-71
2023/03/29 05:41:57;;;;;;;10.60;4.70;;;;;;;-3.27;83.32;100220.13;106330;1287;71622;-72
2023/03/29 05:44:53;;;;;;;14.30;4.80;;;;;;;-3.07;82.88;100226.70;106416;1287;66866;-69
2023/03/29 05:47:40;;;;;;;10.10;3.30;;;;;;;-2.96;82.05;100224.42;106385;1288;71471;-63
2023/03/29 05:50:27;;;;;;;11.50;4.10;;;;;;;-2.87;81.43;100222.52;106453;1288;57685;-67
2023/03/29 05:53:19;;;;;;;10.40;3.80;;;;;;;-2.80;81.02;100217.14;106356;1287;58920;-65
2023/03/29 05:56:07;;;;;;;14.50;4.90;;;;;;;-2.75;80.35;100216.86;106402;1288;70484;-66
2023/03/29 05:58:57;;;;;;;12.60;4.50;;;;;;;-2.69;80.39;100212.58;104879;1288;1002864;-65
2023/03/29 06:01:47;;;;;;;16.20;5.70;;;;;;;-2.62;80.13;100210.70;106386;1287;72567;-65
2023/03/29 06:04:40;;;;;;;16.10;5.70;;;;;;;-2.54;79.74;100207.92;105724;1287;1003552;-67
2023/03/29 06:07:50;;;;;;;15.30;5.30;;;;;;;-2.45;79.14;100214.86;106265;1289;60168;-65
2023/03/29 06:11:00;;;;;;;18.20;6.60;;;;;;;-2.36;78.66;100210.83;106419;1286;73216;-67
2023/03/29 06:14:09;;;;;;;18.90;7.30;;;;;;;-2.25;78.09;100203.80;106462;1286;66420;-64
2023/03/29 06:17:00;;;;;;;15.00;5.90;;;;;;;-2.14;77.88;100206.52;106348;1286;72841;-66
2023/03/29 06:19:47;;;;;;;17.90;6.40;;;;;;;-2.04;77.35;100206.63;106391;1286;57410;-65
2023/03/29 06:22:34;;;;;;;16.50;5.70;;;;;;;-1.93;77.04;100206.19;106418;1286;60403;-64
2023/03/29 06:25:21;;;;;;;12.60;4.90;;;;;;;-1.80;76.00;100209.72;106485;1286;74072;-66
2023/03/29 06:28:26;;;;;;;12.80;5.10;;;;;;;-1.64;75.60;100211.93;106475;1286;66591;-69
2023/03/29 06:31:18;;;;;;;14.10;5.30;;;;;;;-1.35;75.34;100211.36;106331;1286;71432;-69
2023/03/29 06:34:05;;;;;;;14.40;4.70;;;;;;;-0.82;73.40;100207.31;106387;1286;58599;-66
2023/03/29 06:37:15;;;;;;;12.50;3.90;;;;;;;0.93;70.07;100203.42;106442;1287;59606;-65
2023/03/29 06:40:06;;;;;;;11.20;4.70;;;;;;;3.21;64.02;100199.58;106336;1286;71618;-67
2023/03/29 06:42:59;;;;;;;11.40;5.10;;;;;;;5.22;54.55;100194.69;106429;1288;66518;-66
2023/03/29 06:45:49;;;;;;;11.40;4.80;;;;;;;6.81;49.52;100185.60;106626;1286;71280;-67
2023/03/29 06:48:40;;;;;;;13.90;5.20;;;;;;;8.49;48.23;100178.89;106403;1286;57872;-66
2023/03/29 06:51:27;;;;;;;11.30;4.70;;;;;;;10.03;42.66;100163.91;106302;1286;61338;-66
2023/03/29 06:54:14;;;;;;;12.10;5.10;;;;;;;10.93;38.82;100155.89;106453;1286;71837;-70
2023/03/29 06:57:07;;;;;;;11.20;4.30;;;;;;;12.05;38.20;100152.69;106453;1286;67807;-66
2023/03/29 06:59:54;;;;;;;11.20;5.00;;;;;;;12.92;35.79;100149.89;106407;1286;72622;-66
2023/03/29 07:02:45;;;;;;;14.00;5.10;;;;;;;13.65;33.41;100137.44;106347;1289;58200;-67
2023/03/29 07:05:35;;;;;;;13.30;5.40;;;;;;;14.38;31.95;100119.48;106382;1286;59425;-67
2023/03/29 07:08:22;;;;;;;18.60;6.10;;;;;;;14.88;30.92;100109.21;106497;1286;72946;-64
2023/03/29 07:11:19;;;;;;;16.00;6.30;;;;;;;15.47;29.97;100105.96;106503;1286;67881;-66
2023/03/29 07:14:10;;;;;;;13.70;5.70;;;;;;;15.29;28.89;100103.76;106401;1286;71503;-68
2023/03/29 07:16:57;;;;;;;13.10;6.30;;;;;;;15.37;28.56;100101.92;106565;1286;57413;-68
2023/03/29 07:19:57;;;;;;;12.30;5.60;;;;;;;15.72;28.48;100102.30;106381;1286;58001;-71
2023/03/29 07:23:13;;;;;;;12.60;4.50;;;;;;;15.98;27.65;100101.73;106389;1287;72982;-68
2023/03/29 07:26:00;;;;;;;11.70;4.50;;;;;;;16.18;27.79;100102.93;106582;1286;67052;-70
2023/03/29 07:28:47;;;;;;;10.80;3.70;;;;;;;16.36;27.02;100101.48;106430;1286;71520;-70
2023/03/29 07:31:39;;;;;;;8.70;3.50;;;;;;;16.37;26.62;100103.54;106545;1286;57546;-67
2023/03/29 07:35:04;;;;;;;8.90;3.50;;;;;;;16.12;26.14;100096.33;106397;1288;58854;-65
2023/03/29 07:37:57;;;;;;;9.00;2.90;;;;;;;16.24;26.36;100099.64;106260;1286;170632;-66
2023/03/29 07:40:44;;;;;;;10.40;3.30;;;;;;;16.44;26.12;100095.99;106360;1288;68061;-66
2023/03/29 07:43:53;;;;;;;10.60;2.80;;;;;;;16.37;25.51;100098.86;106301;1287;72791;-65
2023/03/29 07:46:43;;;;;;;8.70;2.70;;;;;;;16.49;24.57;100094.19;106436;1286;57393;-69
2023/03/29 07:49:30;;;;;;;10.10;2.70;;;;;;;16.40;23.95;100093.72;106486;1286;59142;-70
2023/03/29 07:52:20;;;;;;;6.80;2.30;;;;;;;16.34;23.15;100095.39;106375;1286;72693;-68
2023/03/29 07:55:15;;;;;;;10.70;2.80;;;;;;;16.10;23.19;100095.27;106517;1286;66709;-68
2023/03/29 07:58:20;;;;;;;8.70;3.30;;;;;;;15.91;23.03;100096.64;106515;1286;73941;-69
2023/03/29 08:01:14;;;;;;;9.90;3.30;;;;;;;15.97;23.45;100097.33;106298;1289;58850;-70
2023/03/29 08:04:26;;;;;;;8.80;3.40;;;;;;;16.65;23.44;100098.63;106574;1286;60276;-69
2023/03/29 08:07:52;;;;;;;7.70;3.10;;;;;;;17.09;22.53;100094.94;106559;1286;73164;-72
2023/03/29 08:10:58;;;;;;;11.10;3.10;;;;;;;16.68;22.13;100096.80;105962;1291;67211;-68
2023/03/29 08:13:58;;;;;;;7.50;3.10;;;;;;;16.41;22.34;100091.63;105911;1291;71682;-66
2023/03/29 08:16:51;;;;;;;10.20;3.50;;;;;;;16.52;22.60;100093.91;105975;1291;57807;-70
2023/03/29 08:19:39;;;;;;;10.50;4.30;;;;;;;16.52;22.21;100098.17;106008;1291;60459;-68
2023/03/29 08:22:40;;;;;;;12.50;5.30;;;;;;;16.90;22.39;100092.73;106047;1291;71643;-69
2023/03/29 08:25:29;;;;;;;10.50;4.10;;;;;;;17.30;21.79;100088.59;105959;1291;67175;-71
2023/03/29 08:28:17;;;;;;;10.80;3.70;;;;;;;17.45;21.06;100089.36;105945;1291;72637;-71
2023/03/29 08:31:10;;;;;;;7.90;3.10;;;;;;;17.20;20.60;100093.38;105972;1291;57373;-70
2023/03/29 08:33:59;;;;;;;7.40;2.80;;;;;;;17.17;21.07;100088.89;105938;1291;61229;-72
2023/03/29 08:37:20;;;;;;;10.40;2.80;;;;;;;16.93;20.42;100090.23;105902;1291;73053;-67
2023/03/29 08:40:18;;;;;;;8.30;2.50;;;;;;;17.02;20.67;100083.58;106047;1291;68921;-70
2023/03/29 08:43:56;;;;;;;8.00;2.80;;;;;;;17.01;20.28;100082.13;106352;1287;71931;-71
2023/03/29 08:47:01;;;;;;;8.00;2.70;;;;;;;16.68;20.61;100084.17;106482;1286;57970;-65
2023/03/29 08:49:56;;;;;;;9.50;2.90;;;;;;;16.41;20.35;100076.91;106406;1286;59515;-68
2023/03/29 08:52:56;;;;;;;7.00;2.40;;;;;;;16.83;20.19;100075.34;106471;1286;71824;-69
2023/03/29 08:56:22;;;;;;;9.10;2.70;;;;;;;17.52;19.75;100066.20;106433;1288;67819;-74
2023/03/29 08:59:34;;;;;;;7.10;2.80;;;;;;;17.24;19.50;100059.96;106278;1287;72640;-68
2023/03/29 09:02:29;;;;;;;8.40;3.00;;;;;;;17.24;19.90;100064.13;106299;1288;57887;-66
2023/03/29 09:05:33;;;;;;;8.30;2.50;;;;;;;17.58;19.70;100062.78;106328;1288;60375;-66
2023/03/29 09:08:31;;;;;;;8.50;2.70;;;;;;;18.60;19.18;100057.70;106395;1287;73117;-69
2023/03/29 09:11:23;;;;;;;10.40;3.30;;;;;;;19.18;18.12;100056.31;106491;1286;67693;-65
2023/03/29 09:14:28;;;;;;;9.30;3.10;;;;;;;19.03;18.18;100052.55;106581;1286;71649;-66
2023/03/29 09:17:52;;;;;;;8.50;3.20;;;;;;;18.85;18.39;100054.85;106473;1288;57399;-67
2023/03/29 09:20:59;;;;;;;7.60;2.50;;;;;;;19.28;18.11;100052.40;106411;1287;60054;-68
2023/03/29 09:24:25;;;;;;;7.70;2.70;;;;;;;19.83;18.19;100056.08;106447;1286;73017;-67
2023/03/29 09:27:33;;;;;;;10.40;2.80;;;;;;;20.42;16.94;100058.39;106428;1287;67783;-69
2023/03/29 09:31:00;;;;;;;7.10;2.60;;;;;;;20.14;16.65;100059.21;106431;1286;71537;-67
2023/03/29 09:34:11;;;;;;;7.70;2.60;;;;;;;19.53;16.72;100050.98;106355;1286;58942;-66
2023/03/29 09:37:32;;;;;;;7.50;2.70;;;;;;;19.19;16.85;100051.07;106588;1287;60125;-69
2023/03/29 09:40:30;;;;;;;8.00;2.90;;;;;;;19.50;17.29;100046.95;106422;1286;71993;-66
2023/03/29 09:43:32;;;;;;;7.60;2.90;;;;;;;19.92;17.01;100043.71;106440;1286;66568;-67
2023/03/29 09:46:33;;;;;;;7.30;2.80;;;;;;;20.15;16.55;100039.78;106455;1286;72793;-71
2023/03/29 09:49:25;;;;;;;8.20;3.10;;;;;;;20.04;16.76;100040.73;106410;1286;57498;-69
2023/03/29 09:52:19;;;;;;;10.50;3.30;;;;;;;20.24;16.26;100038.23;106247;1287;60572;-70
2023/03/29 09:55:32;;;;;;;8.70;3.10;;;;;;;20.50;16.17;100032.42;106473;1286;73855;-68
2023/03/29 09:58:42;;;;;;;10.50;3.00;;;;;;;20.80;15.86;100033.84;106477;1288;67155;-69
2023/03/29 10:01:44;;;;;;;5.80;2.10;;;;;;;20.88;15.35;100024.27;106440;1286;71384;-69
2023/03/29 10:04:31;;;;;;;6.70;2.00;;;;;;;21.37;15.45;100018.27;106407;1287;57687;-68
2023/03/29 10:07:22;;;;;;;6.40;2.50;;;;;;;21.65;15.10;100015.55;106461;1286;60728;-67
2023/03/29 10:10:28;;;;;;;6.90;2.60;;;;;;;22.21;15.10;100010.99;106376;1286;71950;-67
2023/03/29 10:13:27;;;;;;;7.10;2.00;;;;;;;22.73;14.73;100006.07;106429;1286;67219;-65
2023/03/29 10:16:29;;;;;;;7.20;2.10;;;;;;;23.54;14.02;100008.39;106350;1286;71304;-66
2023/03/29 10:19:33;;;;;;;6.50;2.20;;;;;;;23.93;13.81;100005.13;106373;1286;57503;-68
2023/03/29 10:22:26;;;;;;;6.90;2.00;;;;;;;23.85;13.59;100000.59;106428;1286;61618;-65
2023/03/29 10:25:16;;;;;;;7.30;2.00;;;;;;;23.75;13.95;99993.55;106423;1286;70616;-70
2023/03/29 10:28:11;;;;;;;7.30;2.80;;;;;;;24.16;13.86;99997.27;106389;1286;68894;-66
2023/03/29 10:31:00;;;;;;;6.70;2.30;;;;;;;24.31;13.23;99997.66;106528;1286;72715;-70
2023/03/29 10:33:56;;;;;;;6.70;2.20;;;;;;;24.09;13.75;99994.64;106464;1288;58919;-69
2023/03/29 10:37:05;;;;;;;7.80;2.30;;;;;;;23.82;13.72;99989.39;106447;1288;61134;-66
2023/03/29 10:39:53;;;;;;;6.40;2.50;;;;;;;23.38;13.83;99981.30;106375;1289;73928;-67
2023/03/29 10:42:48;;;;;;;7.50;2.40;;;;;;;22.68;14.33;99978.04;106449;1288;67948;-65
2023/03/29 10:45:37;;;;;;;8.10;2.20;;;;;;;22.27;14.54;99979.31;106403;1286;73670;-67
2023/03/29 10:48:29;;;;;;;7.30;2.20;;;;;;;21.55;14.92;99979.33;106399;1288;57376;-64
2023/03/29 10:51:18;;;;;;;6.30;2.00;;;;;;;21.09;15.57;99974.58;106439;1286;61233;-66
2023/03/29 10:54:12;;;;;;;5.90;1.70;;;;;;;21.15;16.03;99973.21;106602;1286;73034;-65
2023/03/29 10:57:04;;;;;;;6.30;2.00;;;;;;;20.72;15.92;99967.58;106546;1286;68018;-67
2023/03/29 11:00:03;;;;;;;7.30;2.10;;;;;;;20.26;16.57;99966.97;106551;1286;72638;-69
2023/03/29 11:03:30;;;;;;;6.70;2.00;;;;;;;19.04;17.27;99964.63;106550;1286;57356;-67
2023/03/29 11:06:31;;;;;;;11.20;5.80;;;;;;;17.39;18.40;99960.13;106591;1287;60276;-68
2023/03/29 11:09:57;;;;;;;9.80;3.10;;;;;;;16.60;19.49;99957.73;106550;1286;74218;-65
2023/03/29 11:13:22;;;;;;;6.70;2.30;;;;;;;15.83;20.73;99959.13;106544;1286;67510;-68
2023/03/29 11:16:40;;;;;;;6.70;2.10;;;;;;;15.64;21.35;99955.65;106361;1288;72154;-68
2023/03/29 11:20:11;;;;;;;6.90;2.30;;;;;;;14.98;21.82;99953.02;106381;1288;57488;-69
2023/03/29 11:23:16;;;;;;;7.20;2.20;;;;;;;14.21;22.63;99947.08;106603;1286;59072;-67
2023/03/29 11:26:18;;;;;;;7.30;2.10;;;;;;;13.55;23.55;99945.89;106573;1287;71666;-69
2023/03/29 11:29:15;;;;;;;6.90;2.10;;;;;;;13.00;25.02;99950.05;106603;1286;67881;-68
2023/03/29 11:32:16;;;;;;;8.10;2.30;;;;;;;12.60;25.73;99936.88;106423;1288;72660;-67
2023/03/29 11:35:33;;;;;;;6.70;2.20;;;;;;;12.44;26.70;99936.50;106513;1287;57409;-68
2023/03/29 11:38:34;;;;;;;6.70;2.00;;;;;;;12.67;27.15;99932.69;106553;1286;60163;-65
2023/03/29 11:41:27;;;;;;;8.00;2.40;;;;;;;12.51;26.75;99931.06;106491;1286;73147;-73
2023/03/29 11:44:30;;;;;;;7.90;2.30;;;;;;;12.16;27.07;99930.90;106591;1287;67895;-67
2023/03/29 11:47:21;;;;;;;10.20;2.30;;;;;;;11.74;27.65;99934.64;106373;1287;70629;-68
2023/03/29 11:50:22;;;;;;;7.50;2.30;;;;;;;11.05;28.91;99931.45;106414;1288;59097;-71
2023/03/29 11:53:20;;;;;;;6.70;2.10;;;;;;;10.70;30.03;99921.88;106594;1286;60282;-67
2023/03/29 11:56:18;;;;;;;6.50;1.70;;;;;;;10.66;30.41;99924.29;106427;1286;73285;-67
2023/03/29 11:59:15;;;;;;;8.40;2.20;;;;;;;10.72;30.48;99919.58;106438;1286;66481;-67
2023/03/29 12:02:23;;;;;;;7.30;2.30;;;;;;;10.75;30.64;99920.02;106418;1286;71331;-67
2023/03/29 12:05:24;;;;;;;6.20;1.80;;;;;;;10.89;30.80;99910.90;106433;1287;57337;-71
2023/03/29 12:08:17;;;;;;;8.10;1.80;;;;;;;10.57;30.84;99903.56;106446;1286;59305;-71
2023/03/29 12:11:14;;;;;;;8.50;2.00;;;;;;;10.53;31.65;99912.52;106530;1286;71630;-70
2023/03/29 12:14:12;;;;;;;6.90;2.20;;;;;;;10.46;31.52;99912.03;106447;1286;65786;-71
2023/03/29 12:17:03;;;;;;;7.90;1.90;;;;;;;10.44;31.77;99906.55;106393;1286;71351;-66
2023/03/29 12:20:27;;;;;;;9.00;2.40;;;;;;;10.37;32.02;99902.65;106384;1286;57679;-67
2023/03/29 12:23:16;;;;;;;7.30;2.20;;;;;;;10.47;32.12;99902.20;106402;1286;60308;-68
2023/03/29 12:26:20;;;;;;;7.10;1.80;;;;;;;10.48;31.89;99897.91;106523;1287;72949;-70
2023/03/29 12:29:49;;;;;;;8.30;2.10;;;;;;;10.47;31.84;99894.94;106242;1286;68988;-70
2023/03/29 12:32:47;;;;;;;8.00;2.80;;;;;;;10.84;31.58;99892.18;106384;1288;72802;-69
2023/03/29 12:36:23;;;;;;;7.20;2.10;;;;;;;11.17;30.99;99890.66;106415;1286;57349;-68
2023/03/29 12:39:39;;;;;;;7.40;2.00;;;;;;;11.37;30.88;99878.54;106311;1286;58779;-71
2023/03/29 12:43:36;;;;;;;7.00;2.00;;;;;;;11.27;30.80;99872.15;106575;1287;72989;-69
2023/03/29 12:47:02;;;;;;;8.70;3.10;;;;;;;11.23;31.62;99869.94;106233;1286;67117;-69
2023/03/29 12:49:55;;;;;;;7.80;2.30;;;;;;;11.04;31.52;99870.68;106363;1286;72776;-70
2023/03/29 12:52:41;;;;;;;8.60;2.20;;;;;;;10.78;31.79;99870.86;106360;1286;58749;-70
2023/03/29 12:55:46;;;;;;;7.90;2.10;;;;;;;10.54;32.14;99869.89;106402;1286;59571;-69
2023/03/29 12:59:05;;;;;;;7.80;2.00;;;;;;;10.25;32.91;99864.89;106402;1286;71193;-69
2023/03/29 13:02:06;;;;;;;6.70;2.00;;;;;;;9.95;33.38;99865.88;106602;1286;65416;-70
2023/03/29 13:04:56;;;;;;;6.70;2.20;;;;;;;9.55;34.43;99863.45;106408;1286;72741;-68
2023/03/29 13:07:48;;;;;;;7.60;2.10;;;;;;;9.43;35.10;99859.27;106405;1286;58105;-70
2023/03/29 13:10:41;;;;;;;8.10;2.30;;;;;;;9.39;35.16;99855.46;106502;1287;58413;-71
2023/03/29 13:13:40;;;;;;;7.50;2.40;;;;;;;9.35;35.18;99856.64;106581;1288;73117;-68
2023/03/29 13:16:34;;;;;;;7.80;2.20;;;;;;;9.26;35.67;99856.23;106360;1286;66574;-69
2023/03/29 13:19:36;;;;;;;8.10;1.80;;;;;;;9.23;36.16;99852.42;106354;1286;72772;-69
2023/03/29 13:22:50;;;;;;;7.50;1.90;;;;;;;9.08;36.27;99865.91;106501;1286;57378;-69
2023/03/29 13:25:46;;;;;;;5.80;2.00;;;;;;;8.97;36.97;99859.27;106430;1286;60261;-69
2023/03/29 13:29:33;;;;;;;7.20;2.10;;;;;;;9.00;37.04;99856.02;106536;1286;71890;-68
2023/03/29 13:33:06;;;;;;;9.20;2.40;;;;;;;9.02;37.37;99856.09;106539;1286;67802;-68
2023/03/29 13:36:02;;;;;;;8.70;2.30;;;;;;;9.06;36.66;99849.64;106411;1286;72881;-68